createdAt,value
2022-08-21T00:01:45.665Z,99220.81
2022-08-21T00:04:20.058Z,99218.38
2022-08-21T00:06:50.131Z,99215.66
2022-08-21T00:09:18.370Z,99221.31
2022-08-21T00:11:45.547Z,99216.97
2022-08-21T00:14:13.559Z,99216.00
2022-08-21T00:16:41.013Z,99207.44
2022-08-21T00:19:08.359Z,99203.19
2022-08-21T00:21:35.651Z,99205.72
2022-08-21T00:24:03.153Z,99208.03
2022-08-21T00:26:30.470Z,99200.75
2022-08-21T00:28:58.420Z,99196.50
2022-08-21T00:31:26.554Z,99201.22
2022-08-21T00:33:59.345Z,99200.81
2022-08-21T00:36:29.019Z,99197.94
2022-08-21T00:38:56.494Z,99206.44
2022-08-21T00:41:38.339Z,99206.63
2022-08-21T00:44:07.258Z,99206.59
2022-08-21T00:46:34.431Z,99206.38
2022-08-21T00:49:01.599Z,99206.97
2022-08-21T00:51:30.308Z,99202.72
2022-08-21T00:53:58.983Z,99195.25
2022-08-21T00:56:26.668Z,99191.94
2022-08-21T00:58:54.953Z,99190.12
2022-08-21T01:01:22.449Z,99187.59
2022-08-21T01:03:49.991Z,99197.00
2022-08-21T01:06:17.658Z,99191.03
2022-08-21T01:08:46.848Z,99188.19
2022-08-21T01:11:15.590Z,99189.72
2022-08-21T01:13:46.895Z,99184.34
2022-08-21T01:16:15.040Z,99192.13
2022-08-21T01:18:42.481Z,99185.47
2022-08-21T01:21:14.201Z,99187.34
2022-08-21T01:23:42.392Z,99182.56
2022-08-21T01:26:10.293Z,99173.97
2022-08-21T01:28:57.815Z,99181.09
2022-08-21T01:31:26.523Z,99187.84
2022-08-21T01:33:54.317Z,99180.13
2022-08-21T01:36:21.505Z,99177.94
2022-08-21T01:38:48.961Z,99177.09
2022-08-21T01:41:16.491Z,99178.06
2022-08-21T01:43:43.889Z,99179.16
2022-08-21T01:46:11.421Z,99177.63
2022-08-21T01:48:38.645Z,99179.44
2022-08-21T01:51:06.041Z,99172.50
2022-08-21T01:53:36.531Z,99176.38
2022-08-21T01:56:04.586Z,99174.53
2022-08-21T01:58:40.432Z,99174.34
2022-08-21T02:01:07.802Z,99173.53
2022-08-21T02:03:36.292Z,99178.09
2022-08-21T02:06:04.963Z,99168.16
2022-08-21T02:08:32.190Z,99168.16
2022-08-21T02:10:59.736Z,99173.94
2022-08-21T02:13:27.220Z,99168.28
2022-08-21T02:15:54.407Z,99165.31
2022-08-21T02:18:21.848Z,99168.72
2022-08-21T02:20:49.446Z,99168.38
2022-08-21T02:23:27.044Z,99162.72
2022-08-21T02:25:58.713Z,99168.31
2022-08-21T02:28:27.619Z,99168.22
2022-08-21T02:30:55.285Z,99170.44
2022-08-21T02:33:22.794Z,99175.78
2022-08-21T02:35:50.870Z,99182.19
2022-08-21T02:38:19.334Z,99180.31
2022-08-21T02:40:48.345Z,99169.41
2022-08-21T02:43:19.094Z,99166.00
2022-08-21T02:45:46.597Z,99163.03
2022-08-21T02:48:15.977Z,99162.87
2022-08-21T02:50:45.291Z,99158.31
2022-08-21T02:53:16.309Z,99164.66
2022-08-21T02:55:45.016Z,99164.16
2022-08-21T02:58:12.196Z,99162.44
2022-08-21T03:00:39.612Z,99165.38
2022-08-21T03:03:07.331Z,99167.22
2022-08-21T03:05:35.315Z,99164.44
2022-08-21T03:08:02.924Z,99163.75
2022-08-21T03:10:31.970Z,99165.00
2022-08-21T03:12:59.302Z,99175.16
2022-08-21T03:15:27.389Z,99162.16
2022-08-21T03:17:55.554Z,99165.53
2022-08-21T03:20:24.784Z,99166.59
2022-08-21T03:22:53.183Z,99163.09
2022-08-21T03:25:37.483Z,99173.22
2022-08-21T03:28:08.683Z,99171.78
2022-08-21T03:30:41.618Z,99174.88
2022-08-21T03:33:08.804Z,99172.44
2022-08-21T03:35:39.703Z,99171.53
2022-08-21T03:38:07.214Z,99174.75
2022-08-21T03:40:34.381Z,99175.94
2022-08-21T03:43:01.566Z,99178.28
2022-08-21T03:45:30.086Z,99183.63
2022-08-21T03:47:59.690Z,99179.75
2022-08-21T03:50:27.734Z,99179.88
2022-08-21T03:52:55.613Z,99181.09
2022-08-21T03:55:22.909Z,99178.94
2022-08-21T03:57:50.069Z,99178.47
2022-08-21T04:00:17.966Z,99180.31
2022-08-21T04:02:45.415Z,99192.72
2022-08-21T04:05:13.215Z,99183.03
2022-08-21T04:07:40.457Z,99188.03
2022-08-21T04:10:08.211Z,99187.56
2022-08-21T04:12:35.385Z,99193.28
2022-08-21T04:15:03.031Z,99194.56
2022-08-21T04:17:30.535Z,99186.13
2022-08-21T04:19:57.702Z,99198.97
2022-08-21T04:22:24.877Z,99193.03
2022-08-21T04:24:52.312Z,99201.72
2022-08-21T04:27:19.469Z,99199.53
2022-08-21T04:29:46.661Z,99196.81
2022-08-21T04:32:14.067Z,99200.56
2022-08-21T04:34:41.276Z,99205.28
2022-08-21T04:37:08.473Z,99210.47
2022-08-21T04:39:35.941Z,99212.56
2022-08-21T04:42:03.122Z,99207.56
2022-08-21T04:44:30.386Z,99209.47
2022-08-21T04:46:57.802Z,99214.19
2022-08-21T04:49:24.988Z,99211.34
2022-08-21T04:51:52.197Z,99216.16
2022-08-21T04:54:20.594Z,99211.84
2022-08-21T04:56:47.846Z,99223.37
2022-08-21T04:59:28.192Z,99216.03
2022-08-21T05:01:57.573Z,99219.34
2022-08-21T05:04:26.230Z,99215.94
2022-08-21T05:06:53.943Z,99212.81
2022-08-21T05:09:21.449Z,99213.50
2022-08-21T05:11:49.806Z,99218.03
2022-08-21T05:14:17.073Z,99217.19
2022-08-21T05:16:45.015Z,99219.25
2022-08-21T05:19:12.409Z,99220.94
2022-08-21T05:21:41.752Z,99218.31
2022-08-21T05:24:09.289Z,99223.91
2022-08-21T05:26:45.466Z,99231.19
2022-08-21T05:29:14.742Z,99229.22
2022-08-21T05:31:42.172Z,99233.94
2022-08-21T05:34:09.317Z,99233.97
2022-08-21T05:36:38.056Z,99230.47
2022-08-21T05:39:05.233Z,99224.81
2022-08-21T05:41:34.202Z,99234.38
2022-08-21T05:44:01.978Z,99232.72
2022-08-21T05:46:29.299Z,99232.16
2022-08-21T05:48:56.517Z,99242.16
2022-08-21T05:51:24.328Z,99231.00
2022-08-21T05:53:51.482Z,99221.25
2022-08-21T05:56:18.746Z,99227.38
2022-08-21T05:58:46.216Z,99232.16
2022-08-21T06:01:13.460Z,99220.56
2022-08-21T06:03:41.319Z,99224.84
2022-08-21T06:06:08.563Z,99228.72
2022-08-21T06:08:35.763Z,99220.62
2022-08-21T06:11:04.125Z,99224.37
2022-08-21T06:13:31.306Z,99230.13
2022-08-21T06:16:15.773Z,99229.69
2022-08-21T06:18:44.072Z,99226.22
2022-08-21T06:21:12.499Z,99228.56
2022-08-21T06:23:39.737Z,99226.38
2022-08-21T06:26:07.448Z,99231.63
2022-08-21T06:28:34.896Z,99233.59
2022-08-21T06:31:02.312Z,99230.38
2022-08-21T06:33:32.704Z,99226.13
2022-08-21T06:36:00.919Z,99231.16
2022-08-21T06:38:28.119Z,99232.44
2022-08-21T06:40:56.394Z,99234.59
2022-08-21T06:43:39.219Z,99232.53
2022-08-21T06:46:08.748Z,99224.75
2022-08-21T06:48:36.095Z,99240.25
2022-08-21T06:51:03.601Z,99236.00
2022-08-21T06:53:31.153Z,99234.09
2022-08-21T06:55:58.314Z,99237.47
2022-08-21T06:58:25.505Z,99245.91
2022-08-21T07:00:54.021Z,99246.34
2022-08-21T07:03:28.340Z,99243.62
2022-08-21T07:05:56.058Z,99242.59
2022-08-21T07:08:23.262Z,99246.22
2022-08-21T07:10:50.441Z,99247.00
2022-08-21T07:13:17.910Z,99240.72
2022-08-21T07:15:45.779Z,99243.91
2022-08-21T07:18:14.105Z,99240.78
2022-08-21T07:20:41.600Z,99236.88
2022-08-21T07:23:10.322Z,99245.87
2022-08-21T07:25:37.496Z,99243.88
2022-08-21T07:28:04.955Z,99243.72
2022-08-21T07:30:32.354Z,99242.12
2022-08-21T07:32:59.798Z,99240.84
2022-08-21T07:35:30.033Z,99240.94
2022-08-21T07:37:57.590Z,99234.38
2022-08-21T07:40:25.276Z,99237.19
2022-08-21T07:42:52.836Z,99227.81
2022-08-21T07:45:21.342Z,99231.06
2022-08-21T07:47:49.852Z,99232.34
2022-08-21T07:50:19.913Z,99227.91
2022-08-21T07:52:48.274Z,99223.53
2022-08-21T07:55:17.010Z,99229.75
2022-08-21T07:57:45.352Z,99227.38
2022-08-21T08:00:14.202Z,99224.25
2022-08-21T08:02:41.618Z,99223.16
2022-08-21T08:05:10.262Z,99222.13
2022-08-21T08:07:37.724Z,99219.19
2022-08-21T08:10:05.633Z,99228.91
2022-08-21T08:12:33.040Z,99221.50
2022-08-21T08:15:00.762Z,99231.66
2022-08-21T08:17:28.130Z,99222.78
2022-08-21T08:19:56.366Z,99218.13
2022-08-21T08:22:26.795Z,99214.03
2022-08-21T08:24:54.121Z,99214.44
2022-08-21T08:27:21.783Z,99219.41
2022-08-21T08:29:48.940Z,99208.56
2022-08-21T08:32:16.177Z,99206.22
2022-08-21T08:34:44.223Z,99211.91
2022-08-21T08:37:11.987Z,99209.50
2022-08-21T08:39:39.754Z,99215.87
2022-08-21T08:42:32.988Z,99215.87
2022-08-21T08:45:08.067Z,99207.91
2022-08-21T08:47:36.490Z,99218.38
2022-08-21T08:50:06.124Z,99215.81
2022-08-21T08:52:37.384Z,99209.31
2022-08-21T08:55:04.945Z,99213.28
2022-08-21T08:57:32.209Z,99207.81
2022-08-21T09:00:00.554Z,99208.69
2022-08-21T09:02:30.230Z,99213.03
2022-08-21T09:04:57.578Z,99216.47
2022-08-21T09:07:24.808Z,99222.41
2022-08-21T09:10:01.074Z,99215.66
2022-08-21T09:12:37.011Z,99226.00
2022-08-21T09:15:10.853Z,99223.37
2022-08-21T09:17:40.909Z,99213.94
2022-08-21T09:20:08.318Z,99208.44
2022-08-21T09:22:47.662Z,99215.91
2022-08-21T09:25:25.931Z,99209.94
2022-08-21T09:27:53.096Z,99209.47
2022-08-21T09:30:21.021Z,99210.38
2022-08-21T09:32:48.178Z,99207.34
2022-08-21T09:35:17.775Z,99206.31
2022-08-21T09:37:55.587Z,99199.59
2022-08-21T09:40:32.006Z,99201.22
2022-08-21T09:43:03.851Z,99208.41
2022-08-21T09:45:34.077Z,99210.41
2022-08-21T09:48:15.491Z,99202.28
2022-08-21T09:50:43.265Z,99196.41
2022-08-21T09:53:43.384Z,99190.81
2022-08-21T09:56:39.756Z,99206.63
2022-08-21T09:59:14.477Z,99193.37
2022-08-21T10:01:46.927Z,99206.88
2022-08-21T10:04:16.019Z,99208.06
2022-08-21T10:06:43.175Z,99204.41
2022-08-21T10:09:13.663Z,99201.50
2022-08-21T10:11:47.224Z,99205.38
2022-08-21T10:14:17.316Z,99204.22
2022-08-21T10:17:03.913Z,99200.34
2022-08-21T10:19:46.523Z,99204.19
2022-08-21T10:22:34.180Z,99200.69
2022-08-21T10:25:04.483Z,99198.06
2022-08-21T10:27:35.821Z,99197.75
2022-08-21T10:30:16.522Z,99194.50
2022-08-21T10:33:07.189Z,99205.84
2022-08-21T10:35:36.519Z,99198.69
2022-08-21T10:38:46.221Z,99201.75
2022-08-21T10:41:15.918Z,99195.47
2022-08-21T10:43:52.344Z,99195.13
2022-08-21T10:46:38.771Z,99199.16
2022-08-21T10:49:21.721Z,99196.03
2022-08-21T10:51:54.867Z,99187.94
2022-08-21T10:54:40.962Z,99188.28
2022-08-21T10:57:13.252Z,99184.03
2022-08-21T10:59:49.240Z,99187.72
2022-08-21T11:02:19.191Z,99184.47
2022-08-21T11:04:51.869Z,99191.50
2022-08-21T11:07:23.972Z,99186.47
2022-08-21T11:09:52.239Z,99181.44
2022-08-21T11:12:22.124Z,99181.28
2022-08-21T11:15:04.220Z,99176.91
2022-08-21T11:17:35.481Z,99174.09
2022-08-21T11:20:11.490Z,99183.06
2022-08-21T11:23:03.049Z,99171.03
2022-08-21T11:25:36.975Z,99173.72
2022-08-21T11:28:36.797Z,99176.97
2022-08-21T11:31:04.211Z,99176.69
2022-08-21T11:33:49.487Z,99181.28
2022-08-21T11:36:21.318Z,99180.09
2022-08-21T11:38:51.892Z,99172.66
2022-08-21T11:41:22.344Z,99173.13
2022-08-21T11:43:51.705Z,99164.97
2022-08-21T11:46:27.919Z,99177.16
2022-08-21T11:49:04.365Z,99171.28
2022-08-21T11:51:34.199Z,99159.56
2022-08-21T11:54:07.209Z,99162.28
2022-08-21T11:56:36.542Z,99156.25
2022-08-21T11:59:05.955Z,99165.00
2022-08-21T12:01:34.968Z,99162.66
2022-08-21T12:04:04.419Z,99156.38
2022-08-21T12:06:34.617Z,99157.16
2022-08-21T12:09:03.788Z,99152.97
2022-08-21T12:11:31.306Z,99165.91
2022-08-21T12:14:13.076Z,99170.13
2022-08-21T12:16:41.575Z,99160.75
2022-08-21T12:19:13.299Z,99164.59
2022-08-21T12:21:54.425Z,99165.28
2022-08-21T12:24:33.465Z,99161.50
2022-08-21T12:27:02.847Z,99160.44
2022-08-21T12:29:31.032Z,99166.91
2022-08-21T12:31:58.178Z,99148.06
2022-08-21T12:34:44.587Z,99153.56
2022-08-21T12:37:31.225Z,99150.53
2022-08-21T12:39:59.335Z,99155.28
2022-08-21T12:42:35.223Z,99143.03
2022-08-21T12:45:10.908Z,99151.28
2022-08-21T12:47:45.201Z,99151.12
2022-08-21T12:50:24.545Z,99147.37
2022-08-21T12:53:00.979Z,99148.56
2022-08-21T12:55:30.918Z,99144.16
2022-08-21T12:57:58.098Z,99147.41
2022-08-21T13:00:27.533Z,99145.34
2022-08-21T13:02:55.603Z,99144.06
2022-08-21T13:05:29.393Z,99138.91
2022-08-21T13:07:57.725Z,99136.12
2022-08-21T13:10:27.015Z,99139.41
2022-08-21T13:12:57.888Z,99135.78
2022-08-21T13:15:33.308Z,99131.19
2022-08-21T13:18:03.525Z,99121.59
2022-08-21T13:20:39.001Z,99127.66
2022-08-21T13:23:19.857Z,99120.88
2022-08-21T13:25:47.287Z,99127.44
2022-08-21T13:28:15.900Z,99126.31
2022-08-21T13:30:44.592Z,99123.44
2022-08-21T13:33:13.373Z,99134.25
2022-08-21T13:35:48.262Z,99141.59
2022-08-21T13:38:15.998Z,99142.53
2022-08-21T13:40:48.372Z,99142.50
2022-08-21T13:43:19.955Z,99139.97
2022-08-21T13:45:50.028Z,99136.66
2022-08-21T13:48:17.461Z,99137.78
2022-08-21T13:50:44.661Z,99136.88
2022-08-21T13:53:23.093Z,99138.91
2022-08-21T13:55:50.843Z,99133.22
2022-08-21T13:58:31.367Z,99139.13
2022-08-21T14:00:59.344Z,99126.91
2022-08-21T14:03:32.818Z,99124.53
2022-08-21T14:06:00.451Z,99129.19
2022-08-21T14:08:30.237Z,99123.41
2022-08-21T14:10:57.767Z,99128.09
2022-08-21T14:13:28.414Z,99127.03
2022-08-21T14:15:58.014Z,99128.81
2022-08-21T14:18:26.927Z,99130.69
2022-08-21T14:21:05.208Z,99133.88
2022-08-21T14:23:32.762Z,99126.88
2022-08-21T14:26:04.166Z,99126.16
2022-08-21T14:28:33.217Z,99119.75
2022-08-21T14:31:15.099Z,99118.44
2022-08-21T14:33:42.386Z,99129.72
2022-08-21T14:36:09.857Z,99125.59
2022-08-21T14:38:38.031Z,99119.94
2022-08-21T14:41:16.919Z,99129.75
2022-08-21T14:43:44.980Z,99123.34
2022-08-21T14:46:13.000Z,99127.31
2022-08-21T14:48:40.165Z,99123.84
2022-08-21T14:51:07.585Z,99133.28
2022-08-21T14:53:34.769Z,99132.69
2022-08-21T14:56:07.978Z,99123.59
2022-08-21T14:58:36.531Z,99122.81
2022-08-21T15:01:05.088Z,99126.38
2022-08-21T15:03:33.417Z,99118.34
2022-08-21T15:06:00.849Z,99127.22
2022-08-21T15:08:28.027Z,99124.78
2022-08-21T15:11:11.124Z,99119.25
2022-08-21T15:13:39.920Z,99127.28
2022-08-21T15:16:07.154Z,99117.56
2022-08-21T15:18:34.377Z,99118.97
2022-08-21T15:21:01.807Z,99117.63
2022-08-21T15:23:28.960Z,99117.41
2022-08-21T15:25:58.428Z,99106.38
2022-08-21T15:28:27.239Z,99120.09
2022-08-21T15:31:00.375Z,99117.37
2022-08-21T15:33:27.900Z,99113.03
2022-08-21T15:35:55.060Z,99117.75
2022-08-21T15:38:22.238Z,99114.19
2022-08-21T15:40:51.997Z,99116.94
2022-08-21T15:43:22.820Z,99108.81
2022-08-21T15:46:00.892Z,99113.69
2022-08-21T15:48:28.543Z,99111.84
2022-08-21T15:50:55.737Z,99116.59
2022-08-21T15:53:23.283Z,99122.94
2022-08-21T15:55:50.437Z,99111.88
2022-08-21T15:58:17.870Z,99111.06
2022-08-21T16:00:45.695Z,99123.41
2022-08-21T16:03:15.964Z,99116.50
2022-08-21T16:05:43.797Z,99118.56
2022-08-21T16:08:11.853Z,99119.81
2022-08-21T16:10:39.462Z,99115.56
2022-08-21T16:13:07.977Z,99119.97
2022-08-21T16:15:35.125Z,99118.06
2022-08-21T16:18:02.576Z,99119.25
2022-08-21T16:20:29.922Z,99114.84
2022-08-21T16:22:57.731Z,99118.13
2022-08-21T16:28:12.993Z,99124.91
2022-08-21T16:30:41.494Z,99130.31
2022-08-21T16:33:08.719Z,99122.84
2022-08-21T16:35:35.898Z,99122.34
2022-08-21T16:38:03.491Z,99128.94
2022-08-21T16:40:30.705Z,99128.81
2022-08-21T16:42:58.080Z,99122.25
2022-08-21T16:45:27.855Z,99118.47
2022-08-21T16:47:58.344Z,99118.78
2022-08-21T16:50:25.819Z,99119.50
2022-08-21T16:52:53.142Z,99116.81
2022-08-21T16:55:20.327Z,99109.69
2022-08-21T16:57:47.758Z,99112.19
2022-08-21T17:00:15.752Z,99120.28
2022-08-21T17:02:45.083Z,99109.56
2022-08-21T17:05:14.186Z,99110.16
2022-08-21T17:07:42.485Z,99110.16
2022-08-21T17:10:10.865Z,99104.16
2022-08-21T17:12:38.414Z,99105.19
2022-08-21T17:15:07.579Z,99109.13
2022-08-21T17:17:34.976Z,99107.72
2022-08-21T17:20:02.414Z,99110.81
2022-08-21T17:22:29.590Z,99099.06
2022-08-21T17:24:56.826Z,99106.44
2022-08-21T17:27:26.815Z,99115.09
2022-08-21T17:29:54.678Z,99110.94
2022-08-21T17:32:22.107Z,99112.44
2022-08-21T17:34:49.558Z,99118.09
2022-08-21T17:37:16.737Z,99108.87
2022-08-21T17:39:44.023Z,99115.03
2022-08-21T17:42:11.980Z,99110.81
2022-08-21T17:44:40.449Z,99117.66
2022-08-21T17:47:07.812Z,99123.97
2022-08-21T17:49:35.314Z,99120.59
2022-08-21T17:52:02.613Z,99119.03
2022-08-21T17:54:29.780Z,99119.34
2022-08-21T17:56:57.229Z,99118.34
2022-08-21T17:59:24.432Z,99116.72
2022-08-21T18:01:52.296Z,99112.84
2022-08-21T18:04:21.774Z,99110.69
2022-08-21T18:06:48.984Z,99111.50
2022-08-21T18:09:16.147Z,99116.00
2022-08-21T18:11:43.871Z,99123.72
2022-08-21T18:14:11.110Z,99120.84
2022-08-21T18:16:38.442Z,99123.94
2022-08-21T18:19:09.544Z,99121.22
2022-08-21T18:21:36.719Z,99116.47
2022-08-21T18:24:04.139Z,99125.19
2022-08-21T18:26:34.733Z,99124.78
2022-08-21T18:29:02.304Z,99130.44
2022-08-21T18:31:30.517Z,99135.69
2022-08-21T18:34:01.510Z,99136.97
2022-08-21T18:36:29.527Z,99141.81
2022-08-21T18:39:13.546Z,99142.84
2022-08-21T18:41:46.354Z,99143.97
2022-08-21T18:44:14.377Z,99139.31
2022-08-21T18:46:42.111Z,99146.09
2022-08-21T18:49:10.927Z,99146.03
2022-08-21T18:51:45.134Z,99151.03
2022-08-21T18:54:13.206Z,99139.28
2022-08-21T18:56:42.557Z,99132.91
2022-08-21T18:59:11.951Z,99134.91
2022-08-21T19:01:43.660Z,99137.84
2022-08-21T19:04:41.132Z,99130.66
2022-08-21T19:07:06.004Z,99135.38
2022-08-21T19:09:37.748Z,99134.56
2022-08-21T19:12:14.480Z,99138.06
2022-08-21T19:14:45.656Z,99135.94
2022-08-21T19:17:13.907Z,99135.94
2022-08-21T19:19:42.926Z,99135.28
2022-08-21T19:22:11.215Z,99131.41
2022-08-21T19:24:40.879Z,99124.19
2022-08-21T19:27:17.706Z,99129.44
2022-08-21T19:29:45.769Z,99122.72
2022-08-21T19:32:15.273Z,99119.66
2022-08-21T19:34:46.879Z,99123.25
2022-08-21T19:37:16.608Z,99118.78
2022-08-21T19:39:49.984Z,99121.09
2022-08-21T19:42:21.708Z,99126.44
2022-08-21T19:44:51.925Z,99123.44
2022-08-21T19:47:29.301Z,99121.09
2022-08-21T19:49:58.513Z,99121.12
2022-08-21T19:52:26.499Z,99122.25
2022-08-21T19:54:54.104Z,99122.00
2022-08-21T19:57:21.660Z,99118.41
2022-08-21T19:59:49.811Z,99116.81
2022-08-21T20:02:20.277Z,99116.09
2022-08-21T20:04:54.010Z,99120.53
2022-08-21T20:07:26.452Z,99115.22
2022-08-21T20:09:56.501Z,99116.94
2022-08-21T20:12:25.634Z,99117.34
2022-08-21T20:14:54.568Z,99114.22
2022-08-21T20:17:21.982Z,99114.12
2022-08-21T20:19:54.413Z,99117.72
2022-08-21T20:22:24.472Z,99106.28
2022-08-21T20:24:53.791Z,99109.91
2022-08-21T20:27:24.338Z,99106.66
2022-08-21T20:29:51.658Z,99108.81
2022-08-21T20:32:19.010Z,99104.25
2022-08-21T20:34:52.185Z,99102.09
2022-08-21T20:37:37.583Z,99101.22
2022-08-21T20:40:10.869Z,99101.28
2022-08-21T20:42:39.140Z,99095.66
2022-08-21T20:45:08.401Z,99084.22
2022-08-21T20:47:36.077Z,99081.47
2022-08-21T20:50:09.150Z,99074.25
2022-08-21T20:52:40.583Z,99076.53
2022-08-21T20:55:10.111Z,99078.50
2022-08-21T20:57:43.549Z,99079.53
2022-08-21T21:00:14.588Z,99066.47
2022-08-21T21:02:44.977Z,99075.69
2022-08-21T21:05:22.751Z,99076.84
2022-08-21T21:08:05.852Z,99076.22
2022-08-21T21:10:54.370Z,99078.13
2022-08-21T21:13:24.551Z,99073.66
2022-08-21T21:15:53.619Z,99081.16
2022-08-21T21:18:26.090Z,99074.94
2022-08-21T21:21:08.465Z,99076.88
2022-08-21T21:23:44.504Z,99073.94
2022-08-21T21:26:14.492Z,99068.53
2022-08-21T21:28:47.200Z,99079.25
2022-08-21T21:31:14.671Z,99071.31
2022-08-21T21:33:42.766Z,99068.66
2022-08-21T21:36:10.427Z,99064.25
2022-08-21T21:38:51.795Z,99071.78
2022-08-21T21:41:25.158Z,99074.50
2022-08-21T21:43:52.746Z,99077.06
2022-08-21T21:46:24.667Z,99084.88
2022-08-21T21:49:14.946Z,99078.94
2022-08-21T21:51:42.385Z,99064.19
2022-08-21T21:54:09.702Z,99065.72
2022-08-21T21:56:40.404Z,99071.81
2022-08-21T21:59:29.694Z,99071.50
2022-08-21T22:01:57.100Z,99063.16
2022-08-21T22:04:28.543Z,99069.19
2022-08-21T22:07:18.389Z,99059.69
2022-08-21T22:09:50.495Z,99054.69
2022-08-21T22:12:32.869Z,99059.72
2022-08-21T22:15:00.359Z,99055.37
2022-08-21T22:17:32.250Z,99050.66
2022-08-21T22:20:00.920Z,99057.41
2022-08-21T22:22:28.997Z,99056.25
2022-08-21T22:25:05.867Z,99056.25
2022-08-21T22:27:35.310Z,99049.31
2022-08-21T22:30:04.149Z,99053.28
2022-08-21T22:32:40.198Z,99055.41
2022-08-21T22:35:21.142Z,99045.31
2022-08-21T22:37:49.729Z,99045.66
2022-08-21T22:40:35.991Z,99041.91
2022-08-21T22:43:07.221Z,99038.66
2022-08-21T22:45:51.493Z,99036.56
2022-08-21T22:48:22.649Z,99047.87
2022-08-21T22:51:20.133Z,99050.47
2022-08-21T22:53:47.298Z,99048.91
2022-08-21T22:56:26.965Z,99043.28
2022-08-21T22:58:57.157Z,99038.66
2022-08-21T23:01:24.617Z,99040.59
2022-08-21T23:03:57.689Z,99035.97
2022-08-21T23:06:33.080Z,99032.53
2022-08-21T23:09:00.548Z,99028.62
2022-08-21T23:11:38.006Z,99025.78
2022-08-21T23:14:05.489Z,99024.63
2022-08-21T23:16:52.598Z,99027.72
2022-08-21T23:19:23.378Z,99017.59
2022-08-21T23:21:59.900Z,99023.06
2022-08-21T23:24:33.656Z,99017.87
2022-08-21T23:27:07.900Z,99013.13
2022-08-21T23:29:36.313Z,99007.34
2022-08-21T23:32:25.112Z,99006.44
2022-08-21T23:35:08.539Z,99009.94
2022-08-21T23:37:51.441Z,99008.56
2022-08-21T23:40:22.266Z,99011.41
2022-08-21T23:43:03.272Z,99005.72
2022-08-21T23:45:39.141Z,99012.25
2022-08-21T23:48:29.402Z,99013.53
2022-08-21T23:51:09.050Z,99017.06
2022-08-21T23:53:55.910Z,99006.34
2022-08-21T23:56:23.021Z,99001.59
2022-08-21T23:59:03.483Z,99001.75
